Latest Weather Observations for Walgett

IDN60801

Issued at 12:05 am EDT Sunday 2 November 2014 (issued every 30 minutes, with the page automatically refreshed every 10 minutes)

About weather observations | Map of weather stations | Latest weather observations for NSW | Other Formats
Station Details ID: 052088 Name: WALGETT AIRPORT AWS Lat: -30.04 Lon: 148.12 Height: 133.0 m
Data from the previous 72 hours. | See also: Recent months at Walgett
Date/Time
EDT
Temp
°C
App
Temp
°C
Dew
Point
Rel
Hum
%
Delta-T
°C
Wind Press
QNH
hPa
Press
MSL
hPa
Rain
since 9 am
mm
Dir
 
Spd
km/h
Gust
km/h
Spd
kts
Gust
kts
02/12:00am 19.8 16.7 10.2 54 5.2 S 17 20 9 11 1014.4 1013.8 0.2
 
Date/Time
EDT
Temp
°C
App
Temp
°C
Dew
Point
Rel
Hum
%
Delta-T
°C
Wind Press
QNH
hPa
Press
MSL
hPa
Rain
since 9 am
mm
Dir
 
Spd
km/h
Gust
km/h
Spd
kts
Gust
kts
01/11:30pm 20.9 16.9 10.4 51 5.7 S 22 30 12 16 1014.2 1013.6 0.2
01/11:00pm 21.7 16.4 11.1 51 5.9 S 30 39 16 21 1013.7 1013.1 0.2
01/10:30pm 22.3 18.1 12.3 53 5.7 S 26 33 14 18 1013.3 1012.7 0.2
01/10:00pm 23.7 18.8 12.4 49 6.5 S 30 39 16 21 1012.8 1012.2 0.2
01/09:30pm 25.4 20.3 11.9 43 7.7 SSW 30 41 16 22 1011.8 1011.2 0.2
01/09:21pm 25.7 21.2 12.5 44 7.7 SSW 28 37 15 20 1011.5 1010.9 0.2
01/09:00pm 25.7 23.3 12.5 44 7.7 SSW 17 19 9 10 1010.8 1010.1 0.2
01/08:30pm 26.2 24.3 11.9 41 8.2 SW 13 20 7 11 1010.1 1009.4 0.2
01/08:00pm 26.7 24.2 11.2 38 8.9 WSW 15 19 8 10 1008.9 1008.3 0.2
01/07:30pm 28.1 26.1 11.6 36 9.5 W 13 17 7 9 1008.1 1007.5 0.2
01/07:00pm 28.8 - 12.7 37 9.5 - - - - - 1007.6 1007.0 0.2
01/06:30pm 30.0 24.0 12.0 33 10.6 WSW 35 52 19 28 1007.2 1006.6 0.2
01/06:00pm 31.1 27.1 12.9 32 10.9 W 26 37 14 20 1006.6 1006.0 0.2
01/05:30pm 31.4 26.8 12.2 30 11.4 WSW 28 46 15 25 1005.4 1004.8 0.2
01/05:28pm 31.4 26.8 12.2 30 11.4 WSW 28 46 15 25 1005.4 1004.8 0.2
01/05:00pm 32.3 28.2 11.5 28 12.3 W 24 37 13 20 1005.0 1004.4 0.2
01/04:30pm 31.1 28.2 12.9 32 10.9 W 20 26 11 14 1005.0 1004.4 0.2
01/04:00pm 31.1 25.4 12.9 32 10.9 WSW 35 44 19 24 1005.0 1004.4 0.2
01/03:30pm 33.0 28.3 12.1 28 12.4 WSW 28 39 15 21 1004.7 1004.1 0.2
01/03:25pm 33.0 27.9 13.6 31 11.8 W 33 52 18 28 1004.7 1004.1 0.2
01/03:08pm 34.2 27.6 10.1 23 14.0 W 35 46 19 25 1004.6 1003.9 0.2
01/03:00pm 34.5 31.4 11.6 25 13.7 WNW 19 22 10 12 1004.5 1003.8 0.2
01/02:30pm 35.4 32.0 12.4 25 13.9 NW 22 30 12 16 1004.8 1004.2 0.2
01/02:00pm 35.5 31.9 14.2 28 13.2 NNW 26 33 14 18 1005.0 1004.4 0.2
01/01:30pm 33.1 29.7 13.7 31 11.8 NNW 24 33 13 18 1005.5 1004.9 0.2
01/01:00pm 32.8 28.7 13.9 31 11.6 N 28 39 15 21 1005.6 1005.0 0.2
01/12:30pm 33.2 29.0 15.7 35 11.0 NNW 32 44 17 24 1005.6 1005.0 0.2
01/12:00pm 32.0 29.8 18.6 45 8.8 N 28 39 15 21 1006.5 1005.9 0.2
01/11:30am 29.7 27.0 18.5 51 7.2 N 30 43 16 23 1007.3 1006.7 0.2
01/11:00am 28.4 25.3 17.6 52 6.9 N 30 43 16 23 1007.8 1007.2 0.2
01/10:30am 27.0 22.8 17.2 55 6.2 N 35 50 19 27 1007.8 1007.4 0.2
01/10:12am 26.5 23.1 18.1 60 5.3 N 33 52 18 28 1007.7 1007.3 0.0
01/10:00am 25.7 21.4 17.9 62 4.9 N 37 48 20 26 1007.7 1007.3 0.0
01/09:30am 24.6 21.0 18.5 69 3.9 N 35 44 19 24 1007.8 1007.4 0.0
01/09:00am 23.6 19.7 17.8 70 3.6 NNE 35 44 19 24 1007.8 1007.4 -
01/08:30am 21.9 16.8 16.8 73 3.1 NNE 39 50 21 27 1007.9 1007.5 -
01/08:00am 22.0 17.6 16.7 72 3.3 NNE 35 54 19 29 1007.8 1007.4 -
01/07:30am 21.8 16.9 16.3 71 3.3 NNE 37 48 20 26 1007.8 1007.4 -
01/07:00am 21.1 16.9 16.3 74 2.9 NNE 33 43 18 23 1007.7 1007.3 -
01/06:30am 20.7 16.5 16.1 75 2.8 NNE 33 44 18 24 1007.5 1007.1 -
01/06:00am 20.8 16.6 16.2 75 2.8 NE 33 48 18 26 1007.2 1006.8 -
01/05:30am 20.5 15.8 15.9 75 2.8 NE 35 41 19 22 1007.1 1006.7 -
01/02:03am 20.9 14.3 16.3 75 2.8 NNE 46 65 25 35 1007.8 1007.4 7.6
01/02:00am 20.8 13.4 16.2 75 2.8 NNE 50 65 27 35 1007.3 1006.9 7.6
01/01:45am 20.9 12.3 16.1 74 2.9 NNE 56 74 30 40 1007.1 1006.7 7.6
01/01:38am 21.1 12.3 16.1 73 3.0 NNE 57 67 31 36 1007.2 1006.8 7.4
01/01:30am 21.3 16.0 16.3 73 3.0 NNE 39 54 21 29 1008.9 1008.5 7.2
01/01:00am 21.9 18.3 16.2 70 3.5 NNE 30 39 16 21 1010.4 1009.9 7.2
01/12:30am 20.0 18.1 17.6 86 1.5 NNE 24 28 13 15 1010.3 1009.8 7.2
01/12:00am 20.9 20.2 16.3 75 2.8 N 15 19 8 10 1011.5 1011.1 6.8
 
Date/Time
EDT
Temp
°C
App
Temp
°C
Dew
Point
Rel
Hum
%
Delta-T
°C
Wind Press
QNH
hPa
Press
MSL
hPa
Rain
since 9 am
mm
Dir
 
Spd
km/h
Gust
km/h
Spd
kts
Gust
kts
31/11:30pm 23.5 19.0 15.3 60 4.9 N 33 44 18 24 1010.8 1010.3 5.8
31/11:00pm 24.9 21.2 15.0 54 6.0 NNE 28 35 15 19 1008.7 1008.3 5.6
31/10:30pm 24.2 21.1 14.6 55 5.7 NNW 24 35 13 19 1009.7 1009.2 5.6
31/10:15pm 26.0 21.9 13.8 47 7.2 NNW 28 32 15 17 1009.7 1009.2 5.4
31/10:11pm 25.9 20.0 13.7 47 7.2 WNW 37 46 20 25 1009.8 1009.3 5.4
31/10:00pm 25.1 23.5 15.1 53 6.1 N 17 22 9 12 1009.2 1008.8 5.4
31/09:30pm 23.1 20.5 15.9 64 4.4 N 24 39 13 21 1009.3 1008.9 5.4
31/09:00pm 21.1 19.3 16.9 77 2.6 NE 22 26 12 14 1008.5 1008.1 5.4
31/08:30pm 20.6 21.0 18.2 86 1.5 NE 13 19 7 10 1010.0 1009.5 5.4
31/08:00pm 20.5 21.1 18.6 89 1.2 NNE 13 17 7 9 1011.8 1011.4 5.0
31/07:55pm 20.6 21.2 18.5 88 1.3 NNE 13 17 7 9 1012.0 1011.6 4.8
31/07:45pm 20.7 21.6 18.5 87 1.4 N 11 13 6 7 1012.6 1012.2 4.4
31/07:30pm 21.0 22.5 18.8 87 1.4 NNW 9 13 5 7 1012.6 1012.2 3.6
31/07:12pm 21.1 22.2 18.1 83 1.9 N 9 13 5 7 1012.2 1011.8 3.2
31/07:00pm 20.9 22.0 17.9 83 1.9 NNW 9 13 5 7 1012.3 1011.9 2.8
31/06:49pm 21.2 20.2 17.6 80 2.2 NNW 19 32 10 17 1012.2 1011.8 2.0
31/06:30pm 21.7 18.2 17.5 77 2.6 NNW 32 44 17 24 1012.2 1011.8 1.2
31/06:16pm 22.6 17.9 16.9 70 3.5 NNW 37 56 20 30 1011.4 1011.0 0.2
31/06:09pm 23.7 18.3 16.0 62 4.7 NNW 39 52 21 28 1010.8 1010.3 0.0
31/06:00pm 24.7 19.5 15.6 57 5.5 NNW 37 48 20 26 1010.4 1009.9 0.0
31/05:56pm 24.4 18.6 15.9 59 5.2 NNW 41 56 22 30 1010.3 1009.8 0.0
31/05:49pm 23.9 15.7 16.2 62 4.7 NW 54 80 29 43 1009.8 1009.3 0.0
31/05:39pm 27.2 18.7 13.2 42 8.3 NW 50 69 27 37 1009.0 1008.6 0.0
31/05:37pm 27.6 19.0 12.8 40 8.7 NW 50 69 27 37 1009.1 1008.7 0.0
31/05:36pm 28.1 18.8 12.0 36 9.4 NW 52 69 28 37 1009.0 1008.6 0.0
31/05:30pm 32.1 27.8 7.7 22 13.5 N 20 30 11 16 1007.3 1006.9 0.0
31/05:00pm 32.2 23.5 8.4 23 13.4 NNE 44 56 24 30 1006.4 1006.0 0.0
31/04:58pm 32.1 23.6 8.4 23 13.3 NNE 43 56 23 30 1006.3 1005.9 0.0
31/04:48pm 31.2 22.5 10.0 27 12.1 N 46 65 25 35 1006.4 1006.0 0.0
31/04:45pm 31.2 22.5 10.0 27 12.1 N 46 65 25 35 1006.5 1006.1 0.0
31/04:40pm 31.0 21.5 9.8 27 12.1 N 50 65 27 35 1006.5 1006.1 0.0
31/04:30pm 32.9 24.0 7.0 20 14.2 N 43 69 23 37 1005.8 1005.4 0.0
31/04:21pm 34.9 28.7 6.2 17 15.7 N 28 52 15 28 1005.7 1005.3 0.0
31/04:20pm 35.2 29.5 6.5 17 15.8 N 26 50 14 27 1005.8 1005.4 0.0
31/04:00pm 36.2 33.1 8.9 19 15.7 NE 15 24 8 13 1006.1 1005.7 0.0
31/03:30pm 36.9 33.9 7.8 17 16.5 NNE 13 22 7 12 1006.6 1006.2 0.0
31/03:00pm 37.8 33.8 6.7 15 17.5 NNW 17 22 9 12 1007.3 1006.9 0.0
31/02:30pm 36.5 31.7 7.5 17 16.3 N 22 33 12 18 1008.2 1007.8 0.0
31/02:00pm 36.8 33.6 8.6 18 16.2 N 15 22 8 12 1008.8 1008.4 0.0
31/01:30pm 36.3 32.9 9.0 19 15.7 N 17 24 9 13 1009.6 1009.1 0.0
31/01:00pm 35.5 31.5 9.1 20 15.2 N 20 35 11 19 1010.1 1009.6 0.0
31/12:30pm 35.6 30.9 9.2 20 15.2 N 24 37 13 20 1010.7 1010.2 0.0
31/12:00pm 35.8 - 9.3 20 15.3 - - - - - 1010.9 1010.5 0.0
31/11:30am 35.5 31.7 9.1 20 15.2 N 19 30 10 16 1011.5 1011.1 0.0
31/11:00am 33.6 30.7 9.6 23 13.8 N 15 24 8 13 1012.1 1011.7 0.0
31/10:30am 32.7 29.0 10.1 25 13.0 N 20 22 11 12 1012.6 1012.2 0.0
31/10:00am 31.7 27.8 8.7 24 12.9 NNE 19 26 10 14 1012.7 1012.3 0.0
31/09:30am 29.4 25.0 7.3 25 12.0 NNE 20 28 11 15 1012.9 1012.5 0.0
31/09:00am 26.8 22.2 5.7 26 11.0 NE 19 24 10 13 1013.0 1012.6 0.0
31/08:30am 25.4 20.6 5.6 28 10.2 NE 20 26 11 14 1012.9 1012.5 0.0
31/08:00am 24.6 20.1 4.4 27 10.1 NE 17 26 9 14 1012.7 1012.3 0.0
31/07:30am 21.7 18.0 2.4 28 9.1 ENE 11 17 6 9 1012.8 1012.4 0.0
31/07:00am 20.1 16.3 1.5 29 8.5 NE 11 15 6 8 1012.7 1012.3 0.0
31/06:30am 18.5 13.5 1.1 31 7.8 NE 17 19 9 10 1012.5 1012.1 0.0
31/06:00am 18.6 13.9 0.7 30 8.0 NE 15 20 8 11 1012.2 1011.8 0.0
31/05:30am 19.0 14.3 0.6 29 8.2 NE 15 19 8 10 1011.9 1011.5 0.0
31/05:00am 19.2 14.6 -1.3 25 8.8 ENE 13 19 7 10 1011.5 1011.1 0.0
31/04:30am 20.9 16.5 0.2 25 9.3 E 13 17 7 9 1011.4 1011.0 0.0
31/04:00am 19.2 15.3 -1.8 24 8.9 E 9 11 5 6 1011.4 1011.0 0.0
31/03:30am 19.1 15.3 -0.8 26 8.6 NE 9 13 5 7 1011.6 1011.2 0.0
31/03:00am 20.7 16.9 -0.6 24 9.4 ENE 9 11 5 6 1011.8 1011.4 0.0
31/02:30am 20.3 15.6 -1.5 23 9.4 ENE 13 17 7 9 1011.7 1011.3 0.0
31/02:00am 20.2 16.2 -2.2 22 9.6 E 9 11 5 6 1012.1 1011.7 0.0
31/01:30am 19.8 15.6 -0.8 25 9.0 ENE 11 11 6 6 1012.4 1012.0 0.0
31/01:00am 18.9 14.7 -1.0 26 8.6 ENE 11 13 6 7 1012.9 1012.5 0.0
31/12:30am 18.6 14.3 0.7 30 8.0 NE 13 17 7 9 1013.1 1012.7 0.0
31/12:00am 17.9 14.0 -1.3 27 8.2 NE 9 11 5 6 1013.2 1012.8 0.0
 
Date/Time
EDT
Temp
°C
App
Temp
°C
Dew
Point
Rel
Hum
%
Delta-T
°C
Wind Press
QNH
hPa
Press
MSL
hPa
Rain
since 9 am
mm
Dir
 
Spd
km/h
Gust
km/h
Spd
kts
Gust
kts
30/11:30pm 19.5 15.9 -3.4 21 9.5 E 6 7 3 4 1013.3 1012.9 0.0
30/11:00pm 19.8 16.0 -3.8 20 9.7 E 7 7 4 4 1013.3 1012.9 0.0
30/10:30pm 21.1 16.9 -4.1 18 10.4 SE 9 11 5 6 1013.3 1012.9 0.0
30/10:00pm 22.0 18.2 -3.4 18 10.7 SSE 7 9 4 5 1013.1 1012.7 0.0
30/09:30pm 22.6 18.6 -5.3 15 11.4 SE 7 9 4 5 1012.8 1012.4 0.0
30/09:00pm 23.6 19.7 -4.5 15 11.8 ESE 7 9 4 5 1012.7 1012.3 0.0
30/08:30pm 24.8 20.4 -5.5 13 12.6 SSE 9 13 5 7 1012.4 1012.0 0.0
30/08:00pm 28.0 24.2 -4.0 12 14.1 S 7 9 4 5 1012.0 1011.6 0.0
30/07:30pm 30.8 26.7 -3.0 11 15.5 SW 9 9 5 5 1011.9 1011.5 0.0
30/07:00pm 32.9 29.2 -2.7 10 16.7 SW 7 9 4 5 1011.7 1011.3 0.0
30/06:30pm 34.0 30.6 -1.9 10 17.2 SSW 6 11 3 6 1011.4 1011.0 0.0
30/06:00pm 34.0 29.3 -1.9 10 17.2 SE 13 15 7 8 1011.4 1011.0 0.0
30/05:30pm 33.7 29.0 -2.1 10 17.0 ESE 13 20 7 11 1011.2 1010.8 0.0
30/05:00pm 34.6 30.3 -1.4 10 17.4 SW 11 17 6 9 1011.5 1011.1 0.0
30/04:30pm 34.0 30.4 -1.9 10 17.2 WSW 7 13 4 7 1011.6 1011.2 0.0
30/04:00pm 34.4 28.4 -3.0 9 17.6 SW 19 24 10 13 1011.9 1011.5 0.0
30/03:30pm 34.8 30.0 0.0 11 17.3 S 15 26 8 14 1012.3 1011.9 0.0
30/03:00pm 33.7 29.3 0.4 12 16.5 SSE 13 26 7 14 1012.7 1012.3 0.0
30/02:30pm 33.5 29.1 0.2 12 16.4 SSE 13 22 7 12 1013.1 1012.7 0.0
30/02:00pm 33.1 28.8 1.0 13 16.0 SE 13 20 7 11 1013.7 1013.3 0.0
30/01:30pm 32.4 29.3 1.5 14 15.5 NNE 7 13 4 7 1014.1 1013.7 0.0
30/01:00pm 32.1 28.2 1.3 14 15.3 NNE 11 17 6 9 1014.6 1014.2 0.0
30/12:30pm 31.2 28.1 1.5 15 14.8 E 7 13 4 7 1015.1 1014.7 0.0
30/12:00pm 31.7 27.2 1.9 15 14.9 WSW 15 24 8 13 1015.6 1015.2 0.0
30/11:30am 31.7 28.1 2.8 16 14.7 WSW 11 17 6 9 1016.0 1015.6 0.0
30/11:00am 30.5 27.8 3.5 18 13.8 SSE 7 17 4 9 1016.4 1016.0 0.0
30/10:30am 30.1 26.9 3.2 18 13.7 N 9 15 5 8 1016.6 1016.2 0.0
30/10:00am 29.4 25.9 3.4 19 13.2 NE 11 15 6 8 1016.6 1016.2 0.0
30/09:30am 27.9 24.0 3.6 21 12.3 ENE 13 19 7 10 1016.8 1016.4 0.0
30/09:00am 26.1 22.3 4.0 24 11.1 NE 13 19 7 10 1016.8 1016.4 0.2
30/08:30am 24.1 21.2 4.5 28 9.8 ENE 9 13 5 7 1016.7 1016.3 0.0
30/08:00am 20.7 19.3 3.4 32 8.3 CALM 0 0 0 0 1016.5 1016.1 0.0
30/07:30am 17.4 15.1 2.6 37 6.8 E 4 6 2 3 1016.3 1015.9 0.0
30/07:00am 13.5 11.5 -0.2 39 5.7 CALM 0 0 0 0 1015.8 1015.4 0.0
30/06:30am 11.5 9.4 -0.9 42 5.0 CALM 0 0 0 0 1015.4 1015.0 0.0
30/06:00am 11.2 7.5 -2.9 37 5.4 SW 7 9 4 5 1015.0 1014.6 0.0
30/05:30am 11.4 9.1 -2.0 39 5.3 CALM 0 0 0 0 1014.8 1014.4 0.0
30/05:00am 12.2 10.1 -1.0 40 5.3 CALM 0 0 0 0 1014.6 1014.2 0.0
30/04:30am 12.6 10.5 -0.6 40 5.4 CALM 0 0 0 0 1014.5 1014.1 0.0
30/04:00am 13.6 11.7 0.3 40 5.6 CALM 0 0 0 0 1014.4 1014.0 0.0
30/03:30am 13.7 11.9 1.4 43 5.3 CALM 0 0 0 0 1014.4 1014.0 0.0
30/03:00am 14.8 13.2 2.4 43 5.5 CALM 0 0 0 0 1014.4 1014.0 0.0
30/02:30am 15.6 13.9 2.1 40 6.0 CALM 0 0 0 0 1014.5 1014.1 0.0
30/02:00am 15.3 13.4 0.3 36 6.4 CALM 0 4 0 2 1014.6 1014.2 0.0
30/01:30am 16.6 13.6 1.1 35 6.8 SSE 6 6 3 3 1014.7 1014.3 0.0
30/01:00am 16.5 12.8 -0.2 32 7.2 SSE 9 9 5 5 1014.8 1014.4 0.0
30/12:30am 17.0 13.4 0.6 33 7.2 SSE 9 11 5 6 1015.1 1014.7 0.0

Other Formats:

Comma delimited format used in spreadsheet applications
http://www.bom.gov.au/fwo/IDN60801/IDN60801.95715.axf

JavaScript Object Notation format (JSON) in row-major order
http://www.bom.gov.au/fwo/IDN60801/IDN60801.95715.json